Southwest Oregon Regional Airport
KOTH : rendu visible

Aérodrome :











RETROUVEZ-NOUS SUR...

 
LOGIN :

S'inscrire | Disclaimer

   EN    FR    IT 

 









Légende :    VFR   VFR Marginal   IFR   IFR Intensif   IFR Très Intensif
Visi : 
Plafond : 
>= 8 km
>= 3000ft
5 à 8 km
1000 à 3000 ft
1500m à 5 km
500 à 1000 ft
800 à 1500m
200 à 500 ft
< 800m
< 200 ft
Symboles :   Orages  Brouillard  Fortes neiges  Fortes précipitations  Vent > 20 kt






- Altitude de l'aérodrome : 17 ft
- Code IATA : OTH


KOTH - Southwest Oregon Regional

DERNIER METAR :
  • 072356Z 35020G27KT 10SM CLR 19/14 A3013 RMK AO2 PK WND 35031/2303 SLP203 T01940139 10206 20194 58005

METARs EXPIRÉS :
  • 072256Z 36023G30KT 10SM CLR 19/13 A3014 RMK AO2 PK WND 35030/2248 SLP205 T01940133
  • 072156Z 36021G27KT 10SM CLR 20/13 A3014 RMK AO2 PK WND 34027/2153 SLP207 T02000128

TAF KOTH
Valide du 08 à 00h jusqu'au 09 à 00h UTC


072342Z 0800/0824 36023G30KT P6SM SKC
FM080300 36015G21KT P6SM FEW300
FM080600 01007KT P6SM SCT250
FM081000 34003KT P6SM FEW003 SCT007
FM081200 01003KT 5SM BR BKN003
FM081600 34007KT P6SM FEW035 FEW060
FM081800 35020G35KT P6SM SKC
FIR KZSE / Amérique du Nord



MET'MAP, la Météo Aéronautique d'un coup d'oeil ! - Copyright ORBIFLY Décembre 2007 - Disclaimer

ORBIFLY MET'MAP TEAM :

Programmation & Développement : Alexandra Zaïnal
Sur une idée originale de : Baudouin d'Aumeries
Assistance à la programmation : Marc-Olivier Méhu
Soutien technique & logistique : Manuel Goepfert

Contact : metmap@orbifly.com




SOURCES & CREDITS :

   NOAA       Earth
Advisory